.
WxDataArchive / Data Records for 2007-03-03
2007-03-02 March 2007 2007-03-04

Data Records for Saturday, 03 March 2007

Time	Temp	Chill	HIndex	Humid	Dewpt	 Wind 	HiWind	WindDir	Rain 	Barom 
-----	----	-----	------	-----	-----	------	------	-------	-----	----- 
00:00	29.3	22.2	29.3	65	19.0	7	19	270	0.00	29.522 
00:05	29.1	24.7	29.1	65	18.8	4	10	270	0.00	29.521 
00:10	29.0	24.6	29.0	65	18.7	4	10	270	0.00	29.520 
00:15	29.0	24.6	29.0	66	19.1	4	10	270	0.00	29.520 
00:20	29.0	24.6	29.0	66	19.1	4	10	270	0.00	29.522 
00:25	29.0	23.6	29.0	67	19.4	5	13	270	0.00	29.522 
00:30	29.0	23.6	29.0	67	19.4	5	13	270	0.00	29.523 
00:35	28.8	23.3	28.8	67	19.2	5	14	270	0.00	29.523 
00:40	28.8	22.4	28.8	67	19.2	6	14	270	0.00	29.520 
00:45	29.0	21.9	29.0	66	19.1	7	18	270	0.00	29.524 
00:50	28.8	23.3	28.8	67	19.2	5	14	270	0.00	29.526 
00:55	28.7	24.3	28.7	66	18.8	4	11	248	0.00	29.526 
01:00	28.7	24.3	28.7	65	18.4	4	11	270	0.00	29.525 
01:05	28.7	24.3	28.7	65	18.4	4	15	248	0.00	29.524 
01:10	28.7	22.3	28.7	65	18.4	6	19	270	0.00	29.525 
01:15	28.7	23.2	28.7	65	18.4	5	20	270	0.00	29.525 
01:20	28.8	22.4	28.8	65	18.5	6	15	270	0.00	29.525 
01:25	28.7	23.2	28.7	65	18.4	5	13	270	0.00	29.526 
01:30	28.7	22.3	28.7	65	18.4	6	16	270	0.00	29.528 
01:35	28.8	23.3	28.8	66	18.9	5	13	270	0.00	29.530 
01:40	28.8	22.4	28.8	65	18.5	6	16	270	0.00	29.532 
01:45	28.8	23.3	28.8	65	18.5	5	13	270	0.00	29.533 
01:50	28.8	23.3	28.8	65	18.5	5	12	270	0.00	29.534 
01:55	28.7	24.3	28.7	65	18.4	4	12	270	0.00	29.533 
02:00	28.7	28.7	28.7	66	18.8	3	15	270	0.00	29.533 
02:05	28.7	24.3	28.7	66	18.8	4	9	248	0.00	29.534 
02:10	28.7	24.3	28.7	66	18.8	4	7	270	0.00	29.539 
02:15	28.7	24.3	28.7	66	18.8	4	12	270	0.00	29.540 
02:20	28.7	21.5	28.7	65	18.4	7	17	270	0.00	29.540 
02:25	28.7	23.2	28.7	65	18.4	5	14	270	0.00	29.540 
02:30	28.7	21.5	28.7	64	18.1	7	23	270	0.00	29.539 
02:35	28.5	21.3	28.5	64	17.9	7	19	270	0.00	29.539 
02:40	28.5	21.3	28.5	64	17.9	7	18	270	0.00	29.540 
02:45	28.4	21.9	28.4	64	17.8	6	15	270	0.00	29.542 
02:50	28.4	23.9	28.4	65	18.2	4	11	270	0.00	29.543 
02:55	28.2	22.6	28.2	65	18.0	5	12	270	0.00	29.542 
03:00	28.2	22.6	28.2	65	18.0	5	12	248	0.00	29.543 
03:05	28.2	22.6	28.2	64	17.6	5	12	248	0.00	29.544 
03:10	28.1	22.5	28.1	64	17.5	5	14	248	0.00	29.547 
03:15	27.9	27.9	27.9	64	17.3	3	9	270	0.00	29.545 
03:20	27.9	23.3	27.9	64	17.3	4	12	270	0.00	29.545 
03:25	27.8	27.8	27.8	64	17.2	3	7	248	0.00	29.546 
03:30	27.6	23.0	27.6	63	16.7	4	10	270	0.00	29.546 
03:35	27.6	27.6	27.6	63	16.7	3	7	270	0.00	29.548 
03:40	27.6	21.9	27.6	62	16.3	5	13	270	0.00	29.549 
03:45	27.6	21.9	27.6	62	16.3	5	11	270	0.00	29.546 
03:50	27.6	23.0	27.6	62	16.3	4	12	248	0.00	29.546 
03:55	27.6	23.0	27.6	63	16.7	4	9	270	0.00	29.547 
04:00	27.6	23.0	27.6	63	16.7	4	7	248	0.00	29.547 
04:05	27.6	27.6	27.6	65	17.4	3	7	248	0.00	29.547 
04:10	27.6	23.0	27.6	65	17.4	4	10	248	0.00	29.548 
04:15	27.6	21.9	27.6	65	17.4	5	12	270	0.00	29.551 
04:20	27.6	27.6	27.6	66	17.8	3	7	248	0.00	29.553 
04:25	27.8	22.1	27.8	65	17.6	5	12	270	0.00	29.554 
04:30	27.8	22.1	27.8	65	17.6	5	11	270	0.00	29.555 
04:35	27.8	23.2	27.8	65	17.6	4	9	270	0.00	29.555 
04:40	27.8	22.1	27.8	65	17.6	5	11	248	0.00	29.554 
04:45	27.8	23.2	27.8	66	17.9	4	9	270	0.00	29.555 
04:50	27.8	23.2	27.8	66	17.9	4	11	270	0.00	29.556 
04:55	27.8	22.1	27.8	66	17.9	5	12	270	0.00	29.556 
05:00	27.8	23.2	27.8	66	17.9	4	12	248	0.00	29.557 
05:05	27.6	27.6	27.6	67	18.1	3	7	248	0.00	29.559 
05:10	27.6	21.9	27.6	67	18.1	5	12	248	0.00	29.559 
05:15	27.6	23.0	27.6	67	18.1	4	11	270	0.00	29.559 
05:20	27.6	21.9	27.6	67	18.1	5	12	248	0.00	29.561 
05:25	27.6	21.9	27.6	67	18.1	5	12	270	0.00	29.559 
05:30	27.6	21.9	27.6	67	18.1	5	11	270	0.00	29.560 
05:35	27.5	21.8	27.5	66	17.7	5	13	270	0.00	29.562 
05:40	27.5	21.8	27.5	66	17.7	5	11	270	0.00	29.563 
05:45	27.3	27.3	27.3	67	17.8	3	6	248	0.00	29.566 
05:50	27.2	27.2	27.2	67	17.7	3	10	270	0.00	29.565 
05:55	27.2	27.2	27.2	67	17.7	3	7	248	0.00	29.564 
06:00	27.0	27.0	27.0	67	17.5	3	6	270	0.00	29.566 
06:05	27.0	21.2	27.0	66	17.2	5	13	270	0.00	29.568 
06:10	26.9	26.9	26.9	67	17.4	3	11	270	0.00	29.570 
06:15	26.9	26.9	26.9	67	17.4	3	9	270	0.00	29.570 
06:20	26.7	22.0	26.7	68	17.6	4	12	270	0.00	29.570 
06:25	26.6	26.6	26.6	69	17.8	2	6	248	0.00	29.568 
06:30	26.4	26.4	26.4	69	17.6	2	7	248	0.00	29.569 
06:35	26.4	26.4	26.4	70	18.0	3	10	248	0.00	29.568 
06:40	26.3	26.3	26.3	70	17.9	3	6	248	0.00	29.565 
06:45	26.3	26.3	26.3	71	18.2	3	7	248	0.00	29.570 
06:50	26.1	26.1	26.1	71	18.0	3	7	248	0.00	29.572 
06:55	26.1	26.1	26.1	72	18.3	3	7	248	0.00	29.573 
07:00	26.0	26.0	26.0	73	18.6	3	7	248	0.00	29.574 
07:05	26.0	26.0	26.0	73	18.6	3	6	270	0.00	29.578 
07:10	25.8	25.8	25.8	73	18.4	2	6	270	0.00	29.578 
07:15	25.8	20.9	25.8	73	18.4	4	10	248	0.00	29.579 
07:20	25.8	20.9	25.8	72	18.0	4	10	248	0.00	29.580 
07:25	25.8	25.8	25.8	72	18.0	3	7	270	0.00	29.580 
07:30	25.7	25.7	25.7	72	17.9	3	7	270	0.00	29.580 
07:35	25.7	25.7	25.7	71	17.6	3	12	248	0.00	29.580 
07:40	25.7	25.7	25.7	71	17.6	3	10	248	0.00	29.582 
07:45	25.8	19.8	25.8	70	17.4	5	12	248	0.00	29.587 
07:50	26.0	21.1	26.0	70	17.6	4	10	270	0.00	29.591 
07:55	26.1	26.1	26.1	69	17.3	3	7	248	0.00	29.590 
08:00	26.3	26.3	26.3	69	17.5	3	10	248	0.00	29.594 
08:05	26.4	26.4	26.4	68	17.3	3	9	248	0.00	29.592 
08:10	26.7	26.7	26.7	68	17.6	2	6	248	0.00	29.593 
08:15	26.9	21.1	26.9	67	17.4	5	12	248	0.00	29.593 
08:20	27.0	22.3	27.0	67	17.5	4	12	248	0.00	29.593 
08:25	27.2	22.5	27.2	67	17.7	4	12	248	0.00	29.593 
08:30	27.3	27.3	27.3	66	17.5	3	12	270	0.00	29.593 
08:35	27.2	22.5	27.2	66	17.4	4	15	248	0.00	29.594 
08:40	27.3	21.6	27.3	66	17.5	5	12	270	0.00	29.596 
08:45	27.2	20.5	27.2	66	17.4	6	16	270	0.00	29.599 
08:50	27.0	21.2	27.0	67	17.5	5	13	270	0.00	29.603 
08:55	27.0	22.3	27.0	68	17.9	4	13	270	0.00	29.604 
09:00	27.2	22.5	27.2	68	18.1	4	7	270	0.00	29.607 
09:05	27.3	27.3	27.3	68	18.2	3	9	270	0.00	29.607 
09:10	27.5	27.5	27.5	68	18.3	3	7	270	0.00	29.608 
09:15	27.6	27.6	27.6	68	18.4	2	5	270	0.00	29.607 
09:20	27.5	22.9	27.5	67	18.0	4	12	270	0.00	29.607 
09:25	27.6	23.0	27.6	66	17.8	4	10	270	0.00	29.607 
09:30	27.6	21.9	27.6	66	17.8	5	10	270	0.00	29.608 
09:35	27.6	21.9	27.6	66	17.8	5	12	270	0.00	29.609 
09:40	28.2	23.7	28.2	67	18.7	4	10	270	0.00	29.613 
09:45	28.4	23.9	28.4	65	18.2	4	12	270	0.00	29.610 
09:50	28.5	28.5	28.5	66	18.6	3	7	270	0.00	29.611 
09:55	28.7	28.7	28.7	65	18.4	3	8	270	0.00	29.614 
10:00	28.8	22.4	28.8	63	17.8	6	20	270	0.00	29.618 
10:05	29.0	22.7	29.0	65	18.7	6	13	270	0.00	29.620 
10:10	28.1	21.6	28.1	70	19.6	6	15	270	0.00	29.625 
10:15	28.2	28.2	28.2	76	21.6	2	6	248	0.00	29.624 
10:20	28.4	28.4	28.4	73	20.9	3	7	248	0.00	29.624 
10:25	28.4	28.4	28.4	72	20.5	3	12	270	0.00	29.625 
10:30	28.7	24.3	28.7	73	21.2	4	9	270	0.00	29.626 
10:35	29.0	24.6	29.0	67	19.4	4	10	270	0.00	29.626 
10:40	29.4	23.1	29.4	63	18.4	6	14	270	0.00	29.626 
10:45	29.4	24.0	29.4	61	17.6	5	13	270	0.00	29.627 
10:50	29.4	24.0	29.4	61	17.6	5	11	270	0.00	29.630 
10:55	29.1	23.7	29.1	63	18.1	5	14	270	0.00	29.633 
11:00	29.1	29.1	29.1	65	18.8	3	6	270	0.00	29.630 
11:05	29.5	25.2	29.5	66	19.6	4	11	270	0.00	29.636 
11:10	30.3	25.1	30.3	62	18.9	5	12	270	0.00	29.637 
11:15	30.7	25.5	30.7	60	18.5	5	12	270	0.00	29.633 
11:20	30.1	22.5	30.1	61	18.3	8	17	270	0.00	29.637 
11:25	29.3	22.2	29.3	62	17.9	7	14	270	0.00	29.642 
11:30	29.1	22.0	29.1	59	16.6	7	15	270	0.00	29.643 
11:35	29.3	23.0	29.3	59	16.8	6	16	248	0.00	29.643 
11:40	29.5	23.3	29.5	60	17.3	6	13	270	0.00	29.647 
11:45	29.7	23.5	29.7	61	17.9	6	13	270	0.00	29.652 
11:50	29.3	23.0	29.3	62	17.9	6	13	270	0.00	29.652 
11:55	29.1	23.7	29.1	61	17.4	5	12	270	0.00	29.656 
12:00	29.3	23.9	29.3	62	17.9	5	12	270	0.00	29.657 
12:05	29.4	24.0	29.4	58	16.5	5	11	270	0.00	29.660 
12:10	29.3	25.0	29.3	60	17.2	4	12	270	0.00	29.658 
12:15	29.5	24.1	29.5	58	16.6	5	14	270	0.00	29.661 
12:20	29.5	23.3	29.5	57	16.2	6	16	270	0.00	29.663 
12:25	29.5	23.3	29.5	58	16.6	6	15	270	0.00	29.666 
12:30	29.4	23.1	29.4	58	16.5	6	16	270	0.00	29.670 
12:35	29.3	23.0	29.3	59	16.8	6	14	270	0.00	29.670 
12:40	29.1	23.7	29.1	59	16.6	5	15	270	0.00	29.670 
12:45	29.1	23.7	29.1	61	17.4	5	12	270	0.00	29.672 
12:50	29.4	25.1	29.4	59	16.9	4	10	270	0.00	29.673 
12:55	29.4	24.0	29.4	61	17.6	5	10	270	0.00	29.673 
13:00	29.5	24.1	29.5	61	17.7	5	11	270	0.00	29.674 
13:05	28.8	21.6	28.8	62	17.4	7	15	248	0.00	29.676 
13:10	28.7	22.3	28.7	63	17.7	6	12	270	0.00	29.679 
13:15	28.2	21.7	28.2	66	18.3	6	14	270	0.00	29.683 
13:20	28.2	28.2	28.2	67	18.7	3	14	270	0.00	29.684 
13:25	28.2	22.6	28.2	64	17.6	5	12	270	0.00	29.685 
13:30	28.5	23.0	28.5	65	18.3	5	10	270	0.00	29.687 
13:35	28.2	23.7	28.2	65	18.0	4	14	270	0.00	29.690 
13:40	28.1	22.5	28.1	67	18.6	5	11	270	0.00	29.690 
13:45	27.8	22.1	27.8	69	19.0	5	13	270	0.00	29.694 
13:50	27.9	22.3	27.9	69	19.1	5	13	270	0.00	29.697 
13:55	28.1	22.5	28.1	71	19.9	5	13	270	0.00	29.696 
14:00	27.9	22.3	27.9	70	19.4	5	13	270	0.00	29.699 
14:05	28.1	23.6	28.1	70	19.6	4	10	270	0.00	29.701 
14:10	28.2	22.6	28.2	69	19.4	5	13	270	0.00	29.701 
14:15	28.5	24.0	28.5	70	20.0	4	11	270	0.00	29.704 
14:20	28.5	28.5	28.5	72	20.6	3	7	270	0.00	29.706 
14:25	28.4	22.8	28.4	71	20.2	5	12	270	0.00	29.706 
14:30	28.1	21.6	28.1	73	20.6	6	16	270	0.00	29.709 
14:35	28.1	23.6	28.1	72	20.3	4	7	270	0.00	29.711 
14:40	28.1	22.5	28.1	72	20.3	5	13	270	0.00	29.712 
14:45	27.8	21.2	27.8	72	20.0	6	14	270	0.00	29.717 
14:50	27.6	21.9	27.6	73	20.1	5	15	270	0.00	29.718 
14:55	27.6	21.0	27.6	73	20.1	6	15	270	0.00	29.720 
15:00	27.6	23.0	27.6	74	20.4	4	11	270	0.00	29.723 
15:05	27.6	23.0	27.6	75	20.7	4	11	270	0.00	29.722 
15:10	27.6	21.9	27.6	75	20.7	5	19	270	0.00	29.725 
15:15	27.6	20.2	27.6	74	20.4	7	14	270	0.00	29.729 
15:20	27.8	22.1	27.8	75	20.9	5	14	270	0.00	29.730 
15:25	27.9	22.3	27.9	75	21.0	5	13	270	0.00	29.735 
15:30	28.1	23.6	28.1	76	21.5	4	14	270	0.00	29.736 
15:35	28.2	22.6	28.2	74	21.0	5	13	270	0.00	29.737 
15:40	28.2	23.7	28.2	74	21.0	4	10	270	0.00	29.738 
15:45	28.4	28.4	28.4	75	21.5	3	10	270	0.00	29.746 
15:50	28.1	22.5	28.1	75	21.2	5	10	270	0.00	29.748 
15:55	27.8	22.1	27.8	76	21.2	5	15	270	0.00	29.750 
16:00	27.6	23.0	27.6	78	21.7	4	9	270	0.00	29.752 
16:05	27.5	21.8	27.5	79	21.9	5	10	270	0.00	29.754 
16:10	27.3	22.6	27.3	80	22.0	4	11	270	0.00	29.756 
16:15	27.5	22.9	27.5	81	22.4	4	10	270	0.00	29.758 
16:20	27.5	22.9	27.5	80	22.2	4	10	270	0.00	29.759 
16:25	27.5	27.5	27.5	81	22.4	3	7	248	0.00	29.761 
16:30	27.5	27.5	27.5	81	22.4	3	6	270	0.00	29.765 
16:35	27.5	22.9	27.5	81	22.4	4	11	270	0.00	29.764 
16:40	27.3	21.6	27.3	81	22.3	5	15	270	0.00	29.769 
16:45	27.3	22.6	27.3	81	22.3	4	11	270	0.00	29.770 
16:50	27.3	20.6	27.3	81	22.3	6	15	270	0.00	29.770 
16:55	27.3	22.6	27.3	81	22.3	4	11	270	0.00	29.772 
17:00	27.3	20.6	27.3	80	22.0	6	16	270	0.00	29.774 
17:05	27.3	27.3	27.3	81	22.3	3	10	270	0.00	29.778 
17:10	27.5	27.5	27.5	81	22.4	3	5	270	0.00	29.782 
17:15	27.5	27.5	27.5	80	22.2	3	11	270	0.00	29.786 
17:20	27.5	22.9	27.5	80	22.2	4	8	270	0.00	29.785 
17:25	27.5	22.9	27.5	80	22.2	4	11	270	0.00	29.786 
17:30	27.5	27.5	27.5	80	22.2	3	11	270	0.00	29.788 
17:35	27.3	21.6	27.3	79	21.7	5	13	270	0.00	29.793 
17:40	27.3	27.3	27.3	80	22.0	3	9	270	0.00	29.793 
17:45	27.3	27.3	27.3	81	22.3	3	7	248	0.00	29.798 
17:50	27.2	27.2	27.2	81	22.2	3	10	248	0.00	29.800 
17:55	27.0	27.0	27.0	80	21.7	3	9	270	0.00	29.801 
18:00	27.0	22.3	27.0	79	21.4	4	11	270	0.00	29.802 
18:05	27.0	27.0	27.0	80	21.7	3	5	248	0.00	29.805 
18:10	26.9	22.2	26.9	81	21.9	4	9	270	0.00	29.809 
18:15	26.7	26.7	26.7	82	22.0	2	6	270	0.00	29.817 
18:20	26.4	26.4	26.4	83	22.0	2	5	292	0.00	29.819 
18:25	25.6	25.6	25.6	84	21.5	3	10	315	0.00	29.822 
18:30	25.3	25.3	25.3	86	21.7	3	6	270	0.00	29.830 
18:35	24.8	24.8	24.8	87	21.5	3	6	270	0.00	29.833 
18:40	24.7	24.7	24.7	87	21.4	2	9	270	0.00	29.836 
18:45	24.5	24.5	24.5	88	21.5	2	4	270	0.00	29.838 
18:50	24.5	24.5	24.5	88	21.5	2	8	270	0.00	29.839 
18:55	24.4	24.4	24.4	88	21.4	2	5	270	0.00	29.843 
19:00	24.4	24.4	24.4	88	21.4	1	4	270	0.00	29.851 
19:05	24.4	24.4	24.4	88	21.4	1	4	292	0.00	29.852 
19:10	24.4	24.4	24.4	89	21.6	1	4	315	0.00	29.853 
19:15	24.4	24.4	24.4	89	21.6	1	4	248	0.00	29.859 
19:20	24.2	24.2	24.2	89	21.4	2	6	270	0.00	29.861 
19:25	24.1	24.1	24.1	88	21.1	1	4	270	0.00	29.862 
19:30	23.9	23.9	23.9	88	20.9	1	3	248	0.00	29.862 
19:35	23.9	23.9	23.9	88	20.9	0	2	270	0.00	29.864 
19:40	23.9	23.9	23.9	88	20.9	1	5	248	0.00	29.867 
19:45	23.9	23.9	23.9	88	20.9	1	3	248	0.00	29.870 
19:50	23.8	23.8	23.8	87	20.5	1	4	270	0.00	29.871 
19:55	23.6	23.6	23.6	86	20.0	2	7	270	0.00	29.875 
20:00	23.5	23.5	23.5	84	19.4	2	5	270	0.00	29.881 
20:05	23.5	23.5	23.5	83	19.1	2	7	270	0.00	29.882 
20:10	23.3	23.3	23.3	82	18.6	1	4	248	0.00	29.882 
20:15	23.3	23.3	23.3	81	18.3	2	4	270	0.00	29.883 
20:20	23.3	23.3	23.3	81	18.3	1	5	248	0.00	29.884 
20:25	23.3	23.3	23.3	81	18.3	1	3	270	0.00	29.885 
20:30	23.2	23.2	23.2	81	18.3	2	5	270	0.00	29.892 
20:35	23.2	23.2	23.2	81	18.3	2	5	270	0.00	29.896 
20:40	23.2	23.2	23.2	81	18.3	2	4	270	0.00	29.898 
20:45	23.2	23.2	23.2	80	18.0	1	6	248	0.00	29.899 
20:50	23.0	23.0	23.0	80	17.8	2	4	270	0.00	29.900 
20:55	23.0	23.0	23.0	79	17.5	2	3	270	0.00	29.901 
21:00	23.0	23.0	23.0	79	17.5	2	5	270	0.00	29.904 
21:05	23.0	23.0	23.0	79	17.5	2	6	270	0.00	29.903 
21:10	23.0	23.0	23.0	79	17.5	2	4	248	0.00	29.902 
21:15	23.0	23.0	23.0	79	17.5	2	5	270	0.00	29.904 
21:20	23.0	23.0	23.0	78	17.2	2	5	270	0.00	29.906 
21:25	23.0	23.0	23.0	78	17.2	2	5	270	0.00	29.908 
21:30	23.0	23.0	23.0	77	16.9	2	6	270	0.00	29.911 
21:35	22.9	22.9	22.9	77	16.8	2	5	270	0.00	29.912 
21:40	22.9	22.9	22.9	76	16.5	2	4	270	0.00	29.914 
21:45	22.7	22.7	22.7	76	16.3	2	5	270	0.00	29.916 
21:50	22.5	22.5	22.5	75	15.8	2	4	270	0.00	29.916 
21:55	22.5	22.5	22.5	75	15.8	2	4	270	0.00	29.918 
22:00	22.4	22.4	22.4	74	15.4	2	6	270	0.00	29.927 
22:05	22.4	22.4	22.4	73	15.1	3	6	270	0.00	29.928 
22:10	22.2	22.2	22.2	73	14.9	2	5	270	0.00	29.929 
22:15	22.1	22.1	22.1	73	14.8	2	4	270	0.00	29.933 
22:20	21.8	21.8	21.8	73	14.5	2	3	248	0.00	29.933 
22:25	21.8	21.8	21.8	73	14.5	1	3	248	0.00	29.934 
22:30	21.6	21.6	21.6	74	14.6	1	3	248	0.00	29.933 
22:35	21.8	21.8	21.8	75	15.1	1	4	248	0.00	29.933 
22:40	21.8	21.8	21.8	75	15.1	1	3	270	0.00	29.935 
22:45	21.9	21.9	21.9	75	15.2	2	6	270	0.00	29.934 
22:50	21.9	21.9	21.9	75	15.2	1	4	270	0.00	29.935 
22:55	21.9	21.9	21.9	75	15.2	1	4	248	0.00	29.936 
23:00	21.9	21.9	21.9	76	15.5	1	4	248	0.00	29.935 
23:05	21.9	21.9	21.9	75	15.2	2	5	270	0.00	29.936 
23:10	22.1	22.1	22.1	75	15.4	2	5	248	0.00	29.938 
23:15	22.1	22.1	22.1	75	15.4	2	5	270	0.00	29.940 
23:20	22.2	22.2	22.2	75	15.5	2	9	270	0.00	29.941 
23:25	22.2	22.2	22.2	74	15.2	2	7	270	0.00	29.943 
23:30	22.2	22.2	22.2	74	15.2	2	6	270	0.00	29.946 
23:35	22.2	22.2	22.2	73	14.9	2	4	270	0.00	29.947 
23:40	22.1	22.1	22.1	73	14.8	2	4	248	0.00	29.946 
23:45	21.9	21.9	21.9	73	14.6	1	3	270	0.00	29.946 
23:50	21.9	21.9	21.9	73	14.6	2	8	270	0.00	29.946 
23:55	21.9	21.9	21.9	73	14.6	2	5	248	0.00	29.946 

CoCoRaHS
IN-AL-39
A2 Web Hosting
Creative Commons License
GoDaddy
Look for:

loaded 2017-12-12 14:32:11 • last modified 2010-11-18 10:43:29
Privacy PolicyDisclaimer
• wx.awcolley.com is powered by PmWiki v.2002016 •
• all content (unless otherwise noted) © 2017 A W Colley